sensor_id;sensor_type;location;lat;lon;timestamp;temperature;humidity
4564;DHT22;2294;51.818;8.484;2022-12-18T00:00:40;-8.90;99.90
4564;DHT22;2294;51.818;8.484;2022-12-18T00:03:07;-8.70;99.90
4564;DHT22;2294;51.818;8.484;2022-12-18T00:05:36;-8.70;99.90
4564;DHT22;2294;51.818;8.484;2022-12-18T00:08:03;-8.80;99.90
4564;DHT22;2294;51.818;8.484;2022-12-18T00:10:30;-8.90;99.90
4564;DHT22;2294;51.818;8.484;2022-12-18T00:12:57;-8.90;99.90
4564;DHT22;2294;51.818;8.484;2022-12-18T00:15:23;-9.00;99.90
4564;DHT22;2294;51.818;8.484;2022-12-18T00:17:50;-9.00;99.90
4564;DHT22;2294;51.818;8.484;2022-12-18T00:20:17;-8.90;99.90
4564;DHT22;2294;51.818;8.484;2022-12-18T00:22:52;-8.90;99.90
4564;DHT22;2294;51.818;8.484;2022-12-18T00:25:19;-8.80;99.90
4564;DHT22;2294;51.818;8.484;2022-12-18T00:27:46;-8.80;99.90
4564;DHT22;2294;51.818;8.484;2022-12-18T00:30:13;-8.80;99.90
4564;DHT22;2294;51.818;8.484;2022-12-18T00:32:39;-8.80;99.90
4564;DHT22;2294;51.818;8.484;2022-12-18T00:35:07;-8.90;99.90
4564;DHT22;2294;51.818;8.484;2022-12-18T00:37:34;-8.90;99.90
4564;DHT22;2294;51.818;8.484;2022-12-18T00:40:03;-8.90;99.90
4564;DHT22;2294;51.818;8.484;2022-12-18T00:42:30;-9.00;99.90
4564;DHT22;2294;51.818;8.484;2022-12-18T00:45:15;-9.00;99.90
4564;DHT22;2294;51.818;8.484;2022-12-18T00:47:41;-9.00;99.90
4564;DHT22;2294;51.818;8.484;2022-12-18T00:50:09;-9.00;99.90
4564;DHT22;2294;51.818;8.484;2022-12-18T00:52:36;-8.80;99.90
4564;DHT22;2294;51.818;8.484;2022-12-18T00:55:05;-8.90;99.90
4564;DHT22;2294;51.818;8.484;2022-12-18T00:57:32;-9.00;99.90
4564;DHT22;2294;51.818;8.484;2022-12-18T00:59:59;-8.90;99.90
4564;DHT22;2294;51.818;8.484;2022-12-18T01:02:26;-8.80;99.90
4564;DHT22;2294;51.818;8.484;2022-12-18T01:04:53;-8.70;99.90
4564;DHT22;2294;51.818;8.484;2022-12-18T01:07:19;-8.90;99.90
4564;DHT22;2294;51.818;8.484;2022-12-18T01:09:46;-8.80;99.90
4564;DHT22;2294;51.818;8.484;2022-12-18T01:12:14;-8.80;99.90
4564;DHT22;2294;51.818;8.484;2022-12-18T01:14:41;-8.70;99.90
4564;DHT22;2294;51.818;8.484;2022-12-18T01:17:08;-8.60;99.90
4564;DHT22;2294;51.818;8.484;2022-12-18T01:19:35;-8.50;99.90
4564;DHT22;2294;51.818;8.484;2022-12-18T01:22:02;-8.40;99.90
4564;DHT22;2294;51.818;8.484;2022-12-18T01:24:29;-8.30;99.90
4564;DHT22;2294;51.818;8.484;2022-12-18T01:26:56;-8.30;99.90
4564;DHT22;2294;51.818;8.484;2022-12-18T01:29:24;-8.30;99.90
4564;DHT22;2294;51.818;8.484;2022-12-18T01:31:55;-8.30;99.90
4564;DHT22;2294;51.818;8.484;2022-12-18T01:34:22;-8.20;99.90
4564;DHT22;2294;51.818;8.484;2022-12-18T01:36:49;-8.00;99.90
4564;DHT22;2294;51.818;8.484;2022-12-18T01:39:18;-7.90;99.90
4564;DHT22;2294;51.818;8.484;2022-12-18T01:41:45;-7.80;99.90
4564;DHT22;2294;51.818;8.484;2022-12-18T01:44:58;-7.80;99.90
4564;DHT22;2294;51.818;8.484;2022-12-18T01:47:29;-7.70;99.90
4564;DHT22;2294;51.818;8.484;2022-12-18T01:49:59;-7.70;99.90
4564;DHT22;2294;51.818;8.484;2022-12-18T01:52:28;-7.80;99.90
4564;DHT22;2294;51.818;8.484;2022-12-18T01:54:56;-7.40;99.90
4564;DHT22;2294;51.818;8.484;2022-12-18T01:57:24;-7.80;99.90
4564;DHT22;2294;51.818;8.484;2022-12-18T01:59:53;-7.90;99.90
4564;DHT22;2294;51.818;8.484;2022-12-18T02:02:22;-7.80;99.90
4564;DHT22;2294;51.818;8.484;2022-12-18T02:04:49;-8.00;99.90
4564;DHT22;2294;51.818;8.484;2022-12-18T02:07:21;-8.10;99.90
4564;DHT22;2294;51.818;8.484;2022-12-18T02:09:55;-8.20;99.90
4564;DHT22;2294;51.818;8.484;2022-12-18T02:12:27;-8.20;99.90
4564;DHT22;2294;51.818;8.484;2022-12-18T02:15:02;-8.00;99.90
4564;DHT22;2294;51.818;8.484;2022-12-18T02:17:37;-8.10;99.90
4564;DHT22;2294;51.818;8.484;2022-12-18T02:20:13;-8.20;99.90
4564;DHT22;2294;51.818;8.484;2022-12-18T02:22:48;-8.30;99.90
4564;DHT22;2294;51.818;8.484;2022-12-18T02:25:28;-8.30;99.90
4564;DHT22;2294;51.818;8.484;2022-12-18T02:28:04;-8.20;99.90
4564;DHT22;2294;51.818;8.484;2022-12-18T02:30:34;-8.10;99.90
4564;DHT22;2294;51.818;8.484;2022-12-18T02:33:04;-8.00;99.90
4564;DHT22;2294;51.818;8.484;2022-12-18T02:35:33;-8.20;99.90
4564;DHT22;2294;51.818;8.484;2022-12-18T02:38:01;-8.30;99.90
4564;DHT22;2294;51.818;8.484;2022-12-18T02:40:30;-8.40;99.90
4564;DHT22;2294;51.818;8.484;2022-12-18T02:43:07;-8.20;99.90
4564;DHT22;2294;51.818;8.484;2022-12-18T02:45:34;-8.20;99.90
4564;DHT22;2294;51.818;8.484;2022-12-18T02:48:01;-8.40;99.90
4564;DHT22;2294;51.818;8.484;2022-12-18T02:50:33;-8.50;99.90
4564;DHT22;2294;51.818;8.484;2022-12-18T02:53:09;-8.20;99.90
4564;DHT22;2294;51.818;8.484;2022-12-18T02:55:45;-8.30;99.90
4564;DHT22;2294;51.818;8.484;2022-12-18T02:58:17;-8.20;99.90
4564;DHT22;2294;51.818;8.484;2022-12-18T03:00:50;-8.20;99.90
4564;DHT22;2294;51.818;8.484;2022-12-18T03:03:22;-8.30;99.90
4564;DHT22;2294;51.818;8.484;2022-12-18T03:05:53;-8.20;99.90
4564;DHT22;2294;51.818;8.484;2022-12-18T03:08:23;-8.40;99.90
4564;DHT22;2294;51.818;8.484;2022-12-18T03:10:56;-8.30;99.90
4564;DHT22;2294;51.818;8.484;2022-12-18T03:13:29;-8.30;99.90
4564;DHT22;2294;51.818;8.484;2022-12-18T03:15:58;-8.50;99.90
4564;DHT22;2294;51.818;8.484;2022-12-18T03:18:30;-8.40;99.90
4564;DHT22;2294;51.818;8.484;2022-12-18T03:21:02;-8.30;99.90
4564;DHT22;2294;51.818;8.484;2022-12-18T03:23:35;-8.20;99.90
4564;DHT22;2294;51.818;8.484;2022-12-18T03:26:07;-8.20;99.90
4564;DHT22;2294;51.818;8.484;2022-12-18T03:28:39;-8.20;99.90
4564;DHT22;2294;51.818;8.484;2022-12-18T03:31:09;-8.30;99.90
4564;DHT22;2294;51.818;8.484;2022-12-18T03:33:39;-8.20;99.90
4564;DHT22;2294;51.818;8.484;2022-12-18T03:36:08;-8.30;99.90
4564;DHT22;2294;51.818;8.484;2022-12-18T03:38:35;-8.20;99.90
4564;DHT22;2294;51.818;8.484;2022-12-18T03:41:07;-8.30;99.90
4564;DHT22;2294;51.818;8.484;2022-12-18T03:43:45;-8.20;99.90
4564;DHT22;2294;51.818;8.484;2022-12-18T03:46:24;-8.20;99.90
4564;DHT22;2294;51.818;8.484;2022-12-18T03:48:56;-8.10;99.90
4564;DHT22;2294;51.818;8.484;2022-12-18T03:51:28;-8.10;99.90
4564;DHT22;2294;51.818;8.484;2022-12-18T03:54:00;-8.10;99.90
4564;DHT22;2294;51.818;8.484;2022-12-18T03:56:30;-8.10;99.90
4564;DHT22;2294;51.818;8.484;2022-12-18T03:59:01;-8.20;99.90
4564;DHT22;2294;51.818;8.484;2022-12-18T04:01:32;-8.10;99.90
4564;DHT22;2294;51.818;8.484;2022-12-18T04:04:01;-8.30;99.90
4564;DHT22;2294;51.818;8.484;2022-12-18T04:06:29;-8.40;99.90
4564;DHT22;2294;51.818;8.484;2022-12-18T04:08:57;-8.50;99.90
4564;DHT22;2294;51.818;8.484;2022-12-18T04:11:25;-8.40;99.90
4564;DHT22;2294;51.818;8.484;2022-12-18T04:13:55;-8.40;99.90
4564;DHT22;2294;51.818;8.484;2022-12-18T04:16:23;-8.30;99.90
4564;DHT22;2294;51.818;8.484;2022-12-18T04:18:50;-8.40;99.90
4564;DHT22;2294;51.818;8.484;2022-12-18T04:21:17;-8.40;99.90
4564;DHT22;2294;51.818;8.484;2022-12-18T04:23:44;-8.30;99.90
4564;DHT22;2294;51.818;8.484;2022-12-18T04:26:11;-8.30;99.90
4564;DHT22;2294;51.818;8.484;2022-12-18T04:28:38;-8.40;99.90
4564;DHT22;2294;51.818;8.484;2022-12-18T04:31:05;-8.50;99.90
4564;DHT22;2294;51.818;8.484;2022-12-18T04:33:33;-8.60;99.90
4564;DHT22;2294;51.818;8.484;2022-12-18T04:36:00;-8.60;99.90
4564;DHT22;2294;51.818;8.484;2022-12-18T04:38:27;-8.60;99.90
4564;DHT22;2294;51.818;8.484;2022-12-18T04:40:54;-8.50;99.90
4564;DHT22;2294;51.818;8.484;2022-12-18T04:43:21;-8.40;99.90
4564;DHT22;2294;51.818;8.484;2022-12-18T04:45:47;-8.60;99.90
4564;DHT22;2294;51.818;8.484;2022-12-18T04:48:14;-8.60;99.90
4564;DHT22;2294;51.818;8.484;2022-12-18T04:50:42;-8.60;99.90
4564;DHT22;2294;51.818;8.484;2022-12-18T04:53:09;-8.70;99.90
4564;DHT22;2294;51.818;8.484;2022-12-18T04:55:36;-8.70;99.90
4564;DHT22;2294;51.818;8.484;2022-12-18T04:58:03;-8.80;99.90
4564;DHT22;2294;51.818;8.484;2022-12-18T05:00:30;-8.80;99.90
4564;DHT22;2294;51.818;8.484;2022-12-18T05:02:57;-8.80;99.90
4564;DHT22;2294;51.818;8.484;2022-12-18T05:05:24;-8.70;99.90
4564;DHT22;2294;51.818;8.484;2022-12-18T05:07:52;-8.60;99.90
4564;DHT22;2294;51.818;8.484;2022-12-18T05:10:19;-8.60;99.90
4564;DHT22;2294;51.818;8.484;2022-12-18T05:12:46;-8.50;99.90
4564;DHT22;2294;51.818;8.484;2022-12-18T05:15:27;-8.50;99.90
4564;DHT22;2294;51.818;8.484;2022-12-18T05:17:55;-8.40;99.90
4564;DHT22;2294;51.818;8.484;2022-12-18T05:20:22;-8.30;99.90
4564;DHT22;2294;51.818;8.484;2022-12-18T05:22:49;-8.40;99.90
4564;DHT22;2294;51.818;8.484;2022-12-18T05:25:18;-8.20;99.90
4564;DHT22;2294;51.818;8.484;2022-12-18T05:27:45;-8.10;99.90
4564;DHT22;2294;51.818;8.484;2022-12-18T05:30:13;-8.00;99.90
4564;DHT22;2294;51.818;8.484;2022-12-18T05:32:40;-7.90;99.90
4564;DHT22;2294;51.818;8.484;2022-12-18T05:35:08;-7.90;99.90
4564;DHT22;2294;51.818;8.484;2022-12-18T05:37:35;-7.80;99.90
4564;DHT22;2294;51.818;8.484;2022-12-18T05:40:03;-7.60;99.90
4564;DHT22;2294;51.818;8.484;2022-12-18T05:42:31;-7.50;99.90
4564;DHT22;2294;51.818;8.484;2022-12-18T05:44:58;-7.40;99.90
4564;DHT22;2294;51.818;8.484;2022-12-18T05:47:26;-7.40;99.90
4564;DHT22;2294;51.818;8.484;2022-12-18T05:49:53;-7.30;99.90
4564;DHT22;2294;51.818;8.484;2022-12-18T05:52:20;-7.40;99.90
4564;DHT22;2294;51.818;8.484;2022-12-18T05:54:47;-7.40;99.90
4564;DHT22;2294;51.818;8.484;2022-12-18T05:57:14;-7.40;99.90
4564;DHT22;2294;51.818;8.484;2022-12-18T05:59:42;-7.50;99.90
4564;DHT22;2294;51.818;8.484;2022-12-18T06:02:09;-7.70;99.90
4564;DHT22;2294;51.818;8.484;2022-12-18T06:04:36;-7.60;99.90
4564;DHT22;2294;51.818;8.484;2022-12-18T06:07:03;-7.70;99.90
4564;DHT22;2294;51.818;8.484;2022-12-18T06:09:29;-7.60;99.90
4564;DHT22;2294;51.818;8.484;2022-12-18T06:11:57;-7.50;99.90
4564;DHT22;2294;51.818;8.484;2022-12-18T06:14:24;-7.60;99.90
4564;DHT22;2294;51.818;8.484;2022-12-18T06:16:52;-7.60;99.90
4564;DHT22;2294;51.818;8.484;2022-12-18T06:19:19;-7.50;99.90
4564;DHT22;2294;51.818;8.484;2022-12-18T06:21:46;-7.50;99.90
4564;DHT22;2294;51.818;8.484;2022-12-18T06:24:14;-7.60;99.90
4564;DHT22;2294;51.818;8.484;2022-12-18T06:26:41;-7.60;99.90
4564;DHT22;2294;51.818;8.484;2022-12-18T06:29:08;-7.60;99.90
4564;DHT22;2294;51.818;8.484;2022-12-18T06:31:35;-7.70;99.90
4564;DHT22;2294;51.818;8.484;2022-12-18T06:34:04;-7.70;99.90
4564;DHT22;2294;51.818;8.484;2022-12-18T06:36:31;-7.80;99.90
4564;DHT22;2294;51.818;8.484;2022-12-18T06:38:58;-7.90;99.90
4564;DHT22;2294;51.818;8.484;2022-12-18T06:41:25;-7.90;99.90
4564;DHT22;2294;51.818;8.484;2022-12-18T06:43:52;-7.60;99.90
4564;DHT22;2294;51.818;8.484;2022-12-18T06:46:19;-7.60;99.90
4564;DHT22;2294;51.818;8.484;2022-12-18T06:48:47;-7.60;99.90
4564;DHT22;2294;51.818;8.484;2022-12-18T06:51:18;-7.60;99.90
4564;DHT22;2294;51.818;8.484;2022-12-18T06:53:45;-7.60;99.90
4564;DHT22;2294;51.818;8.484;2022-12-18T06:56:12;-7.80;99.90
4564;DHT22;2294;51.818;8.484;2022-12-18T06:58:39;-7.80;99.90
4564;DHT22;2294;51.818;8.484;2022-12-18T07:01:08;-7.80;99.90
4564;DHT22;2294;51.818;8.484;2022-12-18T07:03:35;-7.80;99.90
4564;DHT22;2294;51.818;8.484;2022-12-18T07:06:02;-7.80;99.90
4564;DHT22;2294;51.818;8.484;2022-12-18T07:08:31;-7.60;99.90
4564;DHT22;2294;51.818;8.484;2022-12-18T07:10:58;-7.70;99.90
4564;DHT22;2294;51.818;8.484;2022-12-18T07:13:25;-8.00;99.90
4564;DHT22;2294;51.818;8.484;2022-12-18T07:15:52;-7.80;99.90
4564;DHT22;2294;51.818;8.484;2022-12-18T07:18:19;-7.90;99.90
4564;DHT22;2294;51.818;8.484;2022-12-18T07:20:46;-7.90;99.90
4564;DHT22;2294;51.818;8.484;2022-12-18T07:23:12;-7.80;99.90
4564;DHT22;2294;51.818;8.484;2022-12-18T07:25:41;-7.60;99.90
4564;DHT22;2294;51.818;8.484;2022-12-18T07:28:08;-7.40;99.90
4564;DHT22;2294;51.818;8.484;2022-12-18T07:30:37;-7.40;99.90
4564;DHT22;2294;51.818;8.484;2022-12-18T07:33:04;-7.40;99.90
4564;DHT22;2294;51.818;8.484;2022-12-18T07:35:32;-7.40;99.90
4564;DHT22;2294;51.818;8.484;2022-12-18T07:37:59;-7.50;99.90
4564;DHT22;2294;51.818;8.484;2022-12-18T07:40:25;-7.40;99.90
4564;DHT22;2294;51.818;8.484;2022-12-18T07:42:54;-7.40;99.90
4564;DHT22;2294;51.818;8.484;2022-12-18T07:45:20;-7.40;99.90
4564;DHT22;2294;51.818;8.484;2022-12-18T07:47:47;-7.30;99.90
4564;DHT22;2294;51.818;8.484;2022-12-18T07:50:15;-7.00;99.90
4564;DHT22;2294;51.818;8.484;2022-12-18T07:52:41;-7.00;99.90
4564;DHT22;2294;51.818;8.484;2022-12-18T07:55:08;-7.00;99.90
4564;DHT22;2294;51.818;8.484;2022-12-18T07:57:35;-7.20;99.90
4564;DHT22;2294;51.818;8.484;2022-12-18T08:00:05;-7.10;99.90
4564;DHT22;2294;51.818;8.484;2022-12-18T08:02:32;-7.10;99.90
4564;DHT22;2294;51.818;8.484;2022-12-18T08:04:59;-7.00;99.90
4564;DHT22;2294;51.818;8.484;2022-12-18T08:07:26;-7.00;99.90
4564;DHT22;2294;51.818;8.484;2022-12-18T08:09:53;-6.90;99.90
4564;DHT22;2294;51.818;8.484;2022-12-18T08:12:20;-6.70;99.90
4564;DHT22;2294;51.818;8.484;2022-12-18T08:14:46;-6.50;99.90
4564;DHT22;2294;51.818;8.484;2022-12-18T08:17:15;-6.50;99.90
4564;DHT22;2294;51.818;8.484;2022-12-18T08:19:41;-6.30;99.90
4564;DHT22;2294;51.818;8.484;2022-12-18T08:22:08;-6.10;99.90
4564;DHT22;2294;51.818;8.484;2022-12-18T08:24:35;-5.30;99.90
4564;DHT22;2294;51.818;8.484;2022-12-18T08:27:02;-5.20;99.90
4564;DHT22;2294;51.818;8.484;2022-12-18T08:29:29;-5.00;99.90
4564;DHT22;2294;51.818;8.484;2022-12-18T08:31:57;-4.60;99.90
4564;DHT22;2294;51.818;8.484;2022-12-18T08:34:25;-4.30;99.90
4564;DHT22;2294;51.818;8.484;2022-12-18T08:36:52;-4.00;99.90
4564;DHT22;2294;51.818;8.484;2022-12-18T08:39:19;-3.80;99.90
4564;DHT22;2294;51.818;8.484;2022-12-18T08:41:46;-3.50;99.90
4564;DHT22;2294;51.818;8.484;2022-12-18T08:44:33;-3.50;99.90
4564;DHT22;2294;51.818;8.484;2022-12-18T08:47:06;-3.40;99.90
4564;DHT22;2294;51.818;8.484;2022-12-18T08:49:35;-3.30;99.90
4564;DHT22;2294;51.818;8.484;2022-12-18T08:52:02;-3.10;99.90
4564;DHT22;2294;51.818;8.484;2022-12-18T08:54:29;-3.10;99.90
4564;DHT22;2294;51.818;8.484;2022-12-18T08:56:56;-3.00;99.90
4564;DHT22;2294;51.818;8.484;2022-12-18T08:59:23;-2.70;99.90
4564;DHT22;2294;51.818;8.484;2022-12-18T09:01:50;-2.60;99.90
4564;DHT22;2294;51.818;8.484;2022-12-18T09:04:17;-2.60;99.90
4564;DHT22;2294;51.818;8.484;2022-12-18T09:06:45;-2.40;99.90
4564;DHT22;2294;51.818;8.484;2022-12-18T09:09:12;-2.40;99.90
4564;DHT22;2294;51.818;8.484;2022-12-18T09:11:39;-2.30;99.90
4564;DHT22;2294;51.818;8.484;2022-12-18T09:14:06;-2.30;99.90
4564;DHT22;2294;51.818;8.484;2022-12-18T09:16:33;-2.10;99.90
4564;DHT22;2294;51.818;8.484;2022-12-18T09:19:03;-2.10;99.90
4564;DHT22;2294;51.818;8.484;2022-12-18T09:21:31;-1.90;99.90
4564;DHT22;2294;51.818;8.484;2022-12-18T09:24:00;-1.80;99.90
4564;DHT22;2294;51.818;8.484;2022-12-18T09:26:27;-1.70;99.90
4564;DHT22;2294;51.818;8.484;2022-12-18T09:28:54;-1.50;99.90
4564;DHT22;2294;51.818;8.484;2022-12-18T09:31:22;-1.50;99.90
4564;DHT22;2294;51.818;8.484;2022-12-18T09:33:50;-1.40;99.90
4564;DHT22;2294;51.818;8.484;2022-12-18T09:36:18;-1.30;99.90
4564;DHT22;2294;51.818;8.484;2022-12-18T09:38:45;-1.30;99.90
4564;DHT22;2294;51.818;8.484;2022-12-18T09:41:33;-1.10;99.90
4564;DHT22;2294;51.818;8.484;2022-12-18T09:44:12;-1.10;99.90
4564;DHT22;2294;51.818;8.484;2022-12-18T09:46:44;-1.10;99.90
4564;DHT22;2294;51.818;8.484;2022-12-18T09:49:15;-1.00;99.90
4564;DHT22;2294;51.818;8.484;2022-12-18T09:51:45;-1.00;99.90
4564;DHT22;2294;51.818;8.484;2022-12-18T09:54:16;-0.90;99.90
4564;DHT22;2294;51.818;8.484;2022-12-18T09:56:46;-0.80;99.90
4564;DHT22;2294;51.818;8.484;2022-12-18T09:59:20;-0.70;99.90
4564;DHT22;2294;51.818;8.484;2022-12-18T10:01:47;-0.70;99.90
4564;DHT22;2294;51.818;8.484;2022-12-18T10:04:14;-0.70;99.90
4564;DHT22;2294;51.818;8.484;2022-12-18T10:06:46;-0.70;99.90
4564;DHT22;2294;51.818;8.484;2022-12-18T10:09:24;-0.70;99.90
4564;DHT22;2294;51.818;8.484;2022-12-18T10:12:01;-0.70;99.90
4564;DHT22;2294;51.818;8.484;2022-12-18T10:14:36;-0.70;99.90
4564;DHT22;2294;51.818;8.484;2022-12-18T10:17:13;-0.40;99.90
4564;DHT22;2294;51.818;8.484;2022-12-18T10:19:45;-0.40;99.90
4564;DHT22;2294;51.818;8.484;2022-12-18T10:22:22;-0.40;99.90
4564;DHT22;2294;51.818;8.484;2022-12-18T10:24:55;-0.30;99.90
4564;DHT22;2294;51.818;8.484;2022-12-18T10:27:28;-0.20;99.90
4564;DHT22;2294;51.818;8.484;2022-12-18T10:29:56;-0.10;99.90
4564;DHT22;2294;51.818;8.484;2022-12-18T10:32:25;-0.10;99.90
4564;DHT22;2294;51.818;8.484;2022-12-18T10:34:54;0.00;99.90
4564;DHT22;2294;51.818;8.484;2022-12-18T10:37:22;0.00;99.90
4564;DHT22;2294;51.818;8.484;2022-12-18T10:40:08;-0.20;99.90
4564;DHT22;2294;51.818;8.484;2022-12-18T10:42:37;0.00;99.90
4564;DHT22;2294;51.818;8.484;2022-12-18T10:45:10;0.10;99.90
4564;DHT22;2294;51.818;8.484;2022-12-18T10:47:42;0.10;99.90
4564;DHT22;2294;51.818;8.484;2022-12-18T10:50:23;0.00;99.90
4564;DHT22;2294;51.818;8.484;2022-12-18T10:52:56;-0.10;99.90
4564;DHT22;2294;51.818;8.484;2022-12-18T10:55:32;0.00;99.90
4564;DHT22;2294;51.818;8.484;2022-12-18T10:58:21;0.00;99.90
4564;DHT22;2294;51.818;8.484;2022-12-18T11:01:06;-0.10;99.90
4564;DHT22;2294;51.818;8.484;2022-12-18T11:03:36;-0.10;99.90
4564;DHT22;2294;51.818;8.484;2022-12-18T11:06:06;-0.10;99.90
4564;DHT22;2294;51.818;8.484;2022-12-18T11:08:33;0.00;99.90
4564;DHT22;2294;51.818;8.484;2022-12-18T11:11:00;0.10;99.90
4564;DHT22;2294;51.818;8.484;2022-12-18T11:13:30;0.80;99.90
4564;DHT22;2294;51.818;8.484;2022-12-18T11:15:57;0.10;99.90
4564;DHT22;2294;51.818;8.484;2022-12-18T11:18:27;0.10;99.90
4564;DHT22;2294;51.818;8.484;2022-12-18T11:20:56;0.20;99.90
4564;DHT22;2294;51.818;8.484;2022-12-18T11:23:24;0.10;99.90
4564;DHT22;2294;51.818;8.484;2022-12-18T11:25:55;0.30;99.90
4564;DHT22;2294;51.818;8.484;2022-12-18T11:28:28;0.20;99.90
4564;DHT22;2294;51.818;8.484;2022-12-18T11:31:16;0.30;99.90
4564;DHT22;2294;51.818;8.484;2022-12-18T11:33:46;0.40;99.90
4564;DHT22;2294;51.818;8.484;2022-12-18T11:36:14;0.40;99.90
4564;DHT22;2294;51.818;8.484;2022-12-18T11:38:44;0.40;99.90
4564;DHT22;2294;51.818;8.484;2022-12-18T11:41:18;0.50;99.90
4564;DHT22;2294;51.818;8.484;2022-12-18T11:43:52;0.50;99.90
4564;DHT22;2294;51.818;8.484;2022-12-18T11:46:26;0.50;99.90
4564;DHT22;2294;51.818;8.484;2022-12-18T11:48:58;0.60;99.90
4564;DHT22;2294;51.818;8.484;2022-12-18T11:51:29;0.50;99.90
4564;DHT22;2294;51.818;8.484;2022-12-18T11:54:00;0.50;99.90
4564;DHT22;2294;51.818;8.484;2022-12-18T11:56:32;0.60;99.90
4564;DHT22;2294;51.818;8.484;2022-12-18T11:59:08;0.50;99.90
4564;DHT22;2294;51.818;8.484;2022-12-18T12:01:45;0.50;99.90
4564;DHT22;2294;51.818;8.484;2022-12-18T12:04:48;0.40;99.90
4564;DHT22;2294;51.818;8.484;2022-12-18T12:07:26;0.40;99.90
4564;DHT22;2294;51.818;8.484;2022-12-18T12:10:06;0.50;99.90
4564;DHT22;2294;51.818;8.484;2022-12-18T12:12:44;0.50;99.90
4564;DHT22;2294;51.818;8.484;2022-12-18T12:15:25;0.60;99.90
4564;DHT22;2294;51.818;8.484;2022-12-18T12:18:00;0.50;99.90
4564;DHT22;2294;51.818;8.484;2022-12-18T12:20:39;0.60;99.90
4564;DHT22;2294;51.818;8.484;2022-12-18T12:23:15;0.50;99.90
4564;DHT22;2294;51.818;8.484;2022-12-18T12:25:48;0.60;99.90
4564;DHT22;2294;51.818;8.484;2022-12-18T12:28:32;0.50;99.90
4564;DHT22;2294;51.818;8.484;2022-12-18T12:31:08;0.50;99.90
4564;DHT22;2294;51.818;8.484;2022-12-18T12:33:49;0.50;99.90
4564;DHT22;2294;51.818;8.484;2022-12-18T12:36:25;0.40;99.90
4564;DHT22;2294;51.818;8.484;2022-12-18T12:38:56;0.70;99.90
4564;DHT22;2294;51.818;8.484;2022-12-18T12:41:26;0.60;99.90
4564;DHT22;2294;51.818;8.484;2022-12-18T12:44:16;0.60;99.90
4564;DHT22;2294;51.818;8.484;2022-12-18T12:46:45;0.60;99.90
4564;DHT22;2294;51.818;8.484;2022-12-18T12:49:15;0.60;99.90
4564;DHT22;2294;51.818;8.484;2022-12-18T12:51:45;0.60;99.90
4564;DHT22;2294;51.818;8.484;2022-12-18T12:54:17;0.60;99.90
4564;DHT22;2294;51.818;8.484;2022-12-18T12:56:48;0.70;99.90
4564;DHT22;2294;51.818;8.484;2022-12-18T12:59:24;0.60;99.90
4564;DHT22;2294;51.818;8.484;2022-12-18T13:01:59;0.60;99.90
4564;DHT22;2294;51.818;8.484;2022-12-18T13:04:35;0.70;99.90
4564;DHT22;2294;51.818;8.484;2022-12-18T13:07:06;0.70;99.90
4564;DHT22;2294;51.818;8.484;2022-12-18T13:12:52;0.50;99.90
4564;DHT22;2294;51.818;8.484;2022-12-18T13:15:29;0.60;99.90
4564;DHT22;2294;51.818;8.484;2022-12-18T13:18:22;0.60;99.90
4564;DHT22;2294;51.818;8.484;2022-12-18T13:20:50;0.60;99.90
4564;DHT22;2294;51.818;8.484;2022-12-18T13:23:33;0.60;99.90
4564;DHT22;2294;51.818;8.484;2022-12-18T13:26:31;0.60;99.90
4564;DHT22;2294;51.818;8.484;2022-12-18T13:29:00;0.60;99.90
4564;DHT22;2294;51.818;8.484;2022-12-18T13:34:34;0.60;99.90
4564;DHT22;2294;51.818;8.484;2022-12-18T13:43:34;0.50;99.90
4564;DHT22;2294;51.818;8.484;2022-12-18T13:46:05;0.60;99.90
4564;DHT22;2294;51.818;8.484;2022-12-18T13:48:35;0.60;99.90
4564;DHT22;2294;51.818;8.484;2022-12-18T13:51:06;0.60;99.90
4564;DHT22;2294;51.818;8.484;2022-12-18T13:53:38;0.60;99.90
4564;DHT22;2294;51.818;8.484;2022-12-18T13:56:06;0.50;99.90
4564;DHT22;2294;51.818;8.484;2022-12-18T13:58:33;0.60;99.90
4564;DHT22;2294;51.818;8.484;2022-12-18T14:00:59;0.60;99.90
4564;DHT22;2294;51.818;8.484;2022-12-18T14:03:29;0.70;99.90
4564;DHT22;2294;51.818;8.484;2022-12-18T14:05:59;0.70;99.90
4564;DHT22;2294;51.818;8.484;2022-12-18T14:08:33;0.70;99.90
4564;DHT22;2294;51.818;8.484;2022-12-18T14:11:01;0.70;99.90
4564;DHT22;2294;51.818;8.484;2022-12-18T14:13:32;0.80;99.90
4564;DHT22;2294;51.818;8.484;2022-12-18T14:16:03;0.60;99.90
4564;DHT22;2294;51.818;8.484;2022-12-18T14:18:36;0.80;99.90
4564;DHT22;2294;51.818;8.484;2022-12-18T14:21:05;0.70;99.90
4564;DHT22;2294;51.818;8.484;2022-12-18T14:23:36;0.60;99.90
4564;DHT22;2294;51.818;8.484;2022-12-18T14:26:20;0.60;99.90
4564;DHT22;2294;51.818;8.484;2022-12-18T14:28:47;0.60;99.90
4564;DHT22;2294;51.818;8.484;2022-12-18T14:31:17;0.60;99.90
4564;DHT22;2294;51.818;8.484;2022-12-18T14:33:45;0.50;99.90
4564;DHT22;2294;51.818;8.484;2022-12-18T14:36:15;0.70;99.90
4564;DHT22;2294;51.818;8.484;2022-12-18T14:38:48;0.60;99.90
4564;DHT22;2294;51.818;8.484;2022-12-18T14:41:16;0.60;99.90
4564;DHT22;2294;51.818;8.484;2022-12-18T14:43:45;0.40;99.90
4564;DHT22;2294;51.818;8.484;2022-12-18T14:46:32;0.40;99.90
4564;DHT22;2294;51.818;8.484;2022-12-18T14:49:01;0.50;99.90
4564;DHT22;2294;51.818;8.484;2022-12-18T14:51:30;0.50;99.90
4564;DHT22;2294;51.818;8.484;2022-12-18T14:54:01;0.40;99.90
4564;DHT22;2294;51.818;8.484;2022-12-18T14:56:30;0.40;99.90
4564;DHT22;2294;51.818;8.484;2022-12-18T14:58:59;0.50;99.90
4564;DHT22;2294;51.818;8.484;2022-12-18T15:01:28;0.40;99.90
4564;DHT22;2294;51.818;8.484;2022-12-18T15:03:57;0.30;99.90
4564;DHT22;2294;51.818;8.484;2022-12-18T15:06:30;0.30;99.90
4564;DHT22;2294;51.818;8.484;2022-12-18T15:08:59;0.30;99.90
4564;DHT22;2294;51.818;8.484;2022-12-18T15:11:30;0.20;99.90
4564;DHT22;2294;51.818;8.484;2022-12-18T15:13:59;0.20;99.90
4564;DHT22;2294;51.818;8.484;2022-12-18T15:16:26;0.20;99.90
4564;DHT22;2294;51.818;8.484;2022-12-18T15:18:53;0.20;99.90
4564;DHT22;2294;51.818;8.484;2022-12-18T15:21:20;0.10;99.90
4564;DHT22;2294;51.818;8.484;2022-12-18T15:23:49;0.10;99.90
4564;DHT22;2294;51.818;8.484;2022-12-18T15:26:20;0.10;99.90
4564;DHT22;2294;51.818;8.484;2022-12-18T15:28:49;0.10;99.90
4564;DHT22;2294;51.818;8.484;2022-12-18T15:31:28;0.10;99.90
4564;DHT22;2294;51.818;8.484;2022-12-18T15:34:19;0.10;99.90
4564;DHT22;2294;51.818;8.484;2022-12-18T15:36:47;0.10;99.90
4564;DHT22;2294;51.818;8.484;2022-12-18T15:39:14;0.20;99.90
4564;DHT22;2294;51.818;8.484;2022-12-18T15:41:42;0.20;99.90
4564;DHT22;2294;51.818;8.484;2022-12-18T15:44:30;2.60;99.90
4564;DHT22;2294;51.818;8.484;2022-12-18T15:46:56;0.00;99.90
4564;DHT22;2294;51.818;8.484;2022-12-18T15:49:23;0.10;99.90
4564;DHT22;2294;51.818;8.484;2022-12-18T15:51:52;0.10;99.90
4564;DHT22;2294;51.818;8.484;2022-12-18T15:54:20;0.10;99.90
4564;DHT22;2294;51.818;8.484;2022-12-18T15:57:10;0.00;99.90
4564;DHT22;2294;51.818;8.484;2022-12-18T15:59:49;0.00;99.90
4564;DHT22;2294;51.818;8.484;2022-12-18T16:02:17;0.00;99.90
4564;DHT22;2294;51.818;8.484;2022-12-18T16:04:44;-0.10;99.90
4564;DHT22;2294;51.818;8.484;2022-12-18T16:07:12;-0.10;99.90
4564;DHT22;2294;51.818;8.484;2022-12-18T16:09:39;0.10;99.90
4564;DHT22;2294;51.818;8.484;2022-12-18T16:12:06;-0.10;99.90
4564;DHT22;2294;51.818;8.484;2022-12-18T16:14:39;0.00;99.90
4564;DHT22;2294;51.818;8.484;2022-12-18T16:17:09;0.00;99.90
4564;DHT22;2294;51.818;8.484;2022-12-18T16:19:36;0.00;99.90
4564;DHT22;2294;51.818;8.484;2022-12-18T16:22:04;-0.10;99.90
4564;DHT22;2294;51.818;8.484;2022-12-18T16:24:33;-0.10;99.90
4564;DHT22;2294;51.818;8.484;2022-12-18T16:27:01;0.10;99.90
4564;DHT22;2294;51.818;8.484;2022-12-18T16:29:29;-0.10;99.90
4564;DHT22;2294;51.818;8.484;2022-12-18T16:31:58;-0.10;99.90
4564;DHT22;2294;51.818;8.484;2022-12-18T16:34:27;-0.10;99.90
4564;DHT22;2294;51.818;8.484;2022-12-18T16:36:56;-0.10;99.90
4564;DHT22;2294;51.818;8.484;2022-12-18T16:39:24;-0.10;99.90